createdAt,value
2022-12-19T00:00:29.024Z,50.90
2022-12-19T00:03:16.872Z,52.73
2022-12-19T00:05:45.147Z,50.90
2022-12-19T00:08:18.048Z,49.60
2022-12-19T00:10:58.596Z,49.57
2022-12-19T00:13:27.263Z,50.77
2022-12-19T00:16:02.480Z,50.53
2022-12-19T00:18:30.310Z,47.77
2022-12-19T00:21:03.948Z,50.43
2022-12-19T00:23:34.400Z,47.00
2022-12-19T00:26:24.286Z,48.00
2022-12-19T00:28:54.924Z,49.73
2022-12-19T00:31:27.518Z,50.93
2022-12-19T00:33:55.551Z,50.13
2022-12-19T00:36:25.734Z,51.30
2022-12-19T00:38:55.412Z,51.50
2022-12-19T00:41:30.458Z,51.27
2022-12-19T00:44:00.398Z,48.03
2022-12-19T00:46:29.159Z,47.97
2022-12-19T00:48:57.007Z,48.00
2022-12-19T00:51:27.716Z,42.93
2022-12-19T00:53:56.942Z,45.00
2022-12-19T00:56:30.087Z,48.33
2022-12-19T00:58:58.181Z,42.23
2022-12-19T01:01:33.483Z,42.77
2022-12-19T01:04:27.813Z,42.97
2022-12-19T01:06:53.867Z,43.73
2022-12-19T01:09:22.869Z,42.83
2022-12-19T01:12:09.707Z,40.87
2022-12-19T01:14:37.381Z,40.63
2022-12-19T01:17:05.345Z,38.93
2022-12-19T01:19:33.023Z,39.70
2022-12-19T01:22:00.974Z,38.33
2022-12-19T01:24:28.774Z,41.63
2022-12-19T01:26:56.684Z,39.63
2022-12-19T01:29:24.480Z,40.00
2022-12-19T01:31:52.552Z,39.30
2022-12-19T01:34:20.409Z,39.50
2022-12-19T01:36:48.783Z,40.87
2022-12-19T01:39:16.384Z,40.53
2022-12-19T01:41:44.420Z,40.10
2022-12-19T01:44:12.229Z,40.23
2022-12-19T01:46:50.158Z,41.97
2022-12-19T01:49:34.823Z,55.70
2022-12-19T01:52:10.315Z,45.80
2022-12-19T01:54:41.577Z,44.50
2022-12-19T01:57:14.025Z,44.27
2022-12-19T01:59:45.955Z,44.17
2022-12-19T02:02:35.837Z,45.33
2022-12-19T02:05:05.701Z,45.87
2022-12-19T02:07:34.473Z,45.17
2022-12-19T02:10:02.739Z,45.90
2022-12-19T02:12:40.048Z,49.77
2022-12-19T02:15:10.600Z,47.33
2022-12-19T02:18:04.330Z,45.23
2022-12-19T02:20:51.618Z,45.90
2022-12-19T02:23:46.612Z,48.17
2022-12-19T02:26:28.203Z,47.93
2022-12-19T02:29:14.922Z,48.50
2022-12-19T02:32:07.070Z,48.87
2022-12-19T02:34:52.924Z,46.97
2022-12-19T02:37:31.582Z,48.77
2022-12-19T02:40:45.502Z,52.77
2022-12-19T02:43:16.819Z,49.37
2022-12-19T02:45:47.140Z,49.63
2022-12-19T02:48:19.358Z,48.60
2022-12-19T02:50:50.277Z,47.70
2022-12-19T02:53:22.456Z,51.20
2022-12-19T02:56:03.663Z,46.60
2022-12-19T02:58:49.209Z,46.40
2022-12-19T03:01:40.005Z,46.40
2022-12-19T03:04:08.984Z,44.83
2022-12-19T03:06:54.699Z,46.07
2022-12-19T03:10:02.656Z,49.87
2022-12-19T03:12:37.688Z,46.67
2022-12-19T03:15:08.471Z,45.83
2022-12-19T03:17:37.952Z,46.10
2022-12-19T03:20:19.103Z,47.70
2022-12-19T03:22:47.858Z,45.10
2022-12-19T03:25:15.701Z,47.73
2022-12-19T03:27:46.186Z,48.70
2022-12-19T03:30:14.494Z,56.37
2022-12-19T03:32:45.383Z,48.87
2022-12-19T03:35:26.042Z,52.27
2022-12-19T03:37:57.655Z,46.83
2022-12-19T03:40:27.249Z,47.93
2022-12-19T03:43:10.427Z,49.67
2022-12-19T03:46:00.758Z,47.10
2022-12-19T03:48:38.312Z,45.57
2022-12-19T03:51:23.721Z,50.00
2022-12-19T03:54:02.327Z,47.07
2022-12-19T03:56:42.533Z,47.73
2022-12-19T03:59:17.787Z,48.10
2022-12-19T04:01:46.252Z,46.97
2022-12-19T04:04:14.484Z,46.10
2022-12-19T04:06:46.931Z,44.13
2022-12-19T04:09:20.763Z,45.17
2022-12-19T04:12:03.654Z,49.57
2022-12-19T04:14:35.926Z,46.93
2022-12-19T04:17:12.443Z,49.33
2022-12-19T04:19:42.682Z,47.23
2022-12-19T04:22:25.862Z,46.93
2022-12-19T04:24:55.466Z,49.23
2022-12-19T04:27:23.339Z,46.00
2022-12-19T04:29:56.048Z,46.17
2022-12-19T04:32:24.895Z,47.20
2022-12-19T04:34:52.812Z,47.10
2022-12-19T04:37:20.490Z,49.50
2022-12-19T04:39:48.412Z,48.00
2022-12-19T04:42:16.028Z,46.90
2022-12-19T04:44:43.912Z,46.90
2022-12-19T04:47:12.222Z,47.60
2022-12-19T04:49:40.297Z,45.77
2022-12-19T04:52:08.036Z,47.77
2022-12-19T04:54:35.974Z,46.00
2022-12-19T04:57:03.885Z,48.80
2022-12-19T04:59:32.252Z,45.93
2022-12-19T05:01:59.964Z,45.80
2022-12-19T05:04:28.659Z,45.43
2022-12-19T05:06:57.635Z,45.97
2022-12-19T05:09:27.163Z,47.93
2022-12-19T05:11:54.823Z,46.57
2022-12-19T05:14:22.830Z,43.47
2022-12-19T05:16:50.582Z,48.80
2022-12-19T05:19:19.174Z,44.40
2022-12-19T05:21:46.769Z,46.20
2022-12-19T05:24:14.786Z,44.30
2022-12-19T05:26:42.736Z,44.77
2022-12-19T05:29:10.809Z,43.33
2022-12-19T05:31:38.485Z,42.10
2022-12-19T05:34:06.496Z,42.30
2022-12-19T05:36:34.370Z,43.17
2022-12-19T05:39:02.598Z,41.87
2022-12-19T05:41:30.367Z,43.00
2022-12-19T05:43:58.627Z,40.80
2022-12-19T05:46:27.618Z,41.00
2022-12-19T05:48:55.751Z,40.30
2022-12-19T05:51:24.438Z,38.33
2022-12-19T05:53:52.971Z,38.83
2022-12-19T05:56:22.572Z,38.70
2022-12-19T05:58:52.794Z,38.30
2022-12-19T06:01:23.105Z,39.70
2022-12-19T06:03:52.252Z,38.03
2022-12-19T06:06:23.434Z,39.50
2022-12-19T06:08:56.667Z,38.60
2022-12-19T06:11:24.827Z,39.23
2022-12-19T06:13:53.807Z,37.73
2022-12-19T06:16:23.465Z,36.03
2022-12-19T06:18:51.374Z,35.93
2022-12-19T06:21:22.116Z,36.80
2022-12-19T06:23:50.392Z,37.23
2022-12-19T06:26:20.507Z,37.33
2022-12-19T06:28:49.867Z,38.27
2022-12-19T06:31:17.965Z,38.53
2022-12-19T06:33:46.130Z,37.03
2022-12-19T06:36:16.589Z,37.00
2022-12-19T06:38:44.570Z,36.17
2022-12-19T06:41:34.965Z,35.77
2022-12-19T06:44:05.206Z,38.53
2022-12-19T06:46:32.923Z,38.63
2022-12-19T06:49:00.837Z,41.20
2022-12-19T06:51:28.524Z,42.27
2022-12-19T06:53:56.430Z,45.13
2022-12-19T06:56:24.927Z,46.93
2022-12-19T06:58:53.002Z,45.07
2022-12-19T07:01:30.550Z,40.40
2022-12-19T07:03:58.716Z,43.77
2022-12-19T07:06:26.394Z,41.80
2022-12-19T07:08:54.318Z,41.20
2022-12-19T07:11:22.057Z,38.97
2022-12-19T07:13:50.013Z,36.80
2022-12-19T07:16:17.735Z,38.20
2022-12-19T07:18:45.952Z,37.23
2022-12-19T07:21:13.747Z,36.97
2022-12-19T07:23:41.911Z,35.67
2022-12-19T07:26:09.697Z,36.70
2022-12-19T07:28:37.939Z,36.93
2022-12-19T07:31:05.737Z,37.40
2022-12-19T07:33:33.864Z,36.17
2022-12-19T07:36:01.845Z,37.87
2022-12-19T07:38:29.841Z,34.70
2022-12-19T07:40:57.537Z,40.33
2022-12-19T07:43:25.527Z,47.47
2022-12-19T07:45:56.852Z,42.53
2022-12-19T07:48:25.108Z,41.10
2022-12-19T07:50:52.910Z,39.17
2022-12-19T07:53:21.034Z,39.30
2022-12-19T07:55:52.390Z,40.90
2022-12-19T07:58:20.553Z,38.60
2022-12-19T08:00:57.660Z,37.37
2022-12-19T08:03:26.316Z,38.20
2022-12-19T08:05:59.467Z,35.53
2022-12-19T08:08:31.259Z,37.00
2022-12-19T08:11:17.723Z,37.80
2022-12-19T08:13:48.545Z,37.60
2022-12-19T08:16:16.760Z,35.50
2022-12-19T08:18:45.356Z,37.37
2022-12-19T08:21:14.273Z,36.13
2022-12-19T08:23:42.811Z,40.07
2022-12-19T08:26:16.066Z,37.33
2022-12-19T08:28:44.095Z,37.30
2022-12-19T08:31:17.271Z,34.67
2022-12-19T08:33:47.553Z,36.23
2022-12-19T08:36:18.987Z,37.70
2022-12-19T08:38:47.970Z,33.83
2022-12-19T08:41:16.519Z,33.10
2022-12-19T08:43:49.505Z,35.37
2022-12-19T08:46:17.996Z,36.00
2022-12-19T08:48:46.431Z,35.50
2022-12-19T08:51:14.972Z,34.90
2022-12-19T08:53:44.058Z,35.13
2022-12-19T08:56:18.118Z,35.67
2022-12-19T08:58:46.502Z,36.70
2022-12-19T09:01:18.893Z,38.53
2022-12-19T09:04:11.504Z,38.80
2022-12-19T09:06:35.409Z,34.77
2022-12-19T09:09:04.490Z,36.67
2022-12-19T09:11:32.210Z,34.33
2022-12-19T09:14:02.818Z,37.53
2022-12-19T09:16:30.707Z,35.23
2022-12-19T09:18:59.180Z,33.33
2022-12-19T09:21:29.401Z,35.43
2022-12-19T09:24:06.978Z,36.00
2022-12-19T09:26:36.216Z,36.60
2022-12-19T09:29:06.760Z,36.23
2022-12-19T09:31:47.950Z,34.50
2022-12-19T09:34:19.965Z,35.77
2022-12-19T09:36:50.581Z,33.77
2022-12-19T09:39:18.692Z,34.27
2022-12-19T09:42:26.880Z,34.27
2022-12-19T09:45:06.184Z,32.40
2022-12-19T09:47:42.304Z,33.30
2022-12-19T09:50:51.479Z,32.83
2022-12-19T09:53:31.747Z,34.03
2022-12-19T09:56:02.249Z,34.00
2022-12-19T09:58:40.725Z,31.87
2022-12-19T10:01:22.663Z,31.80
2022-12-19T10:04:05.177Z,32.63
2022-12-19T10:07:16.110Z,30.27
2022-12-19T10:11:02.407Z,31.70
2022-12-19T10:12:51.344Z,27.17
2022-12-19T10:15:56.137Z,28.13
2022-12-19T10:18:51.115Z,27.73
2022-12-19T10:22:19.375Z,24.80
2022-12-19T10:24:52.712Z,23.93
2022-12-19T10:28:00.535Z,22.97
2022-12-19T10:30:33.795Z,23.73
2022-12-19T10:33:01.602Z,21.87
2022-12-19T10:35:42.625Z,22.17
2022-12-19T10:38:21.431Z,26.27
2022-12-19T10:41:13.220Z,22.83
2022-12-19T10:43:52.431Z,22.43
2022-12-19T10:46:57.263Z,20.53
2022-12-19T10:49:28.684Z,20.87
2022-12-19T10:51:56.974Z,23.03
2022-12-19T10:54:30.696Z,22.83
2022-12-19T10:57:28.057Z,23.53
2022-12-19T11:00:18.100Z,23.60
2022-12-19T11:02:52.075Z,22.70
2022-12-19T11:05:28.249Z,24.17
2022-12-19T11:08:08.271Z,21.53
2022-12-19T11:11:24.749Z,23.23
2022-12-19T11:19:54.516Z,22.23
2022-12-19T11:24:19.668Z,22.67
2022-12-19T11:26:27.497Z,23.83
2022-12-19T11:29:30.010Z,24.37
2022-12-19T11:29:42.128Z,23.83
2022-12-19T11:30:09.735Z,26.17
2022-12-19T11:34:25.245Z,25.43
2022-12-19T11:37:11.566Z,23.50
2022-12-19T11:39:45.678Z,22.33
2022-12-19T11:42:37.784Z,23.77
2022-12-19T11:45:28.101Z,25.37
2022-12-19T11:48:23.234Z,23.87
2022-12-19T11:51:09.662Z,24.00
2022-12-19T11:53:46.190Z,23.73
2022-12-19T11:56:18.456Z,31.37
2022-12-19T11:58:54.548Z,25.37
2022-12-19T12:01:37.489Z,25.83
2022-12-19T12:04:22.947Z,26.67
2022-12-19T12:06:56.062Z,25.30
2022-12-19T12:12:53.430Z,24.20
2022-12-19T12:23:15.917Z,23.00
2022-12-19T12:29:47.806Z,23.27
2022-12-19T12:31:09.040Z,23.97
2022-12-19T12:31:48.723Z,23.37
2022-12-19T12:31:53.294Z,22.50
2022-12-19T12:35:16.490Z,24.37
2022-12-19T12:35:52.121Z,23.30
2022-12-19T12:39:05.534Z,24.37
2022-12-19T12:41:56.750Z,25.37
2022-12-19T12:44:32.700Z,24.43
2022-12-19T12:47:06.914Z,26.23
2022-12-19T12:49:40.435Z,24.13
2022-12-19T12:52:13.906Z,25.23
2022-12-19T12:54:46.521Z,26.77
2022-12-19T12:57:40.505Z,26.50
2022-12-19T13:00:34.038Z,27.67
2022-12-19T13:03:18.243Z,28.17
2022-12-19T13:06:03.503Z,29.93
2022-12-19T13:08:31.643Z,29.40
2022-12-19T13:11:41.958Z,41.00
2022-12-19T13:14:34.623Z,31.20
2022-12-19T13:17:06.900Z,30.13
2022-12-19T13:19:37.052Z,31.70
2022-12-19T13:22:04.739Z,42.90
2022-12-19T13:24:38.240Z,31.93
2022-12-19T13:27:32.332Z,30.70
2022-12-19T13:30:00.373Z,33.70
2022-12-19T13:32:34.819Z,31.63
2022-12-19T13:36:38.624Z,30.43
2022-12-19T13:39:49.684Z,32.50
2022-12-19T13:41:26.516Z,32.83
2022-12-19T13:43:59.701Z,34.07
2022-12-19T13:46:39.220Z,33.37
2022-12-19T13:49:10.333Z,30.40
2022-12-19T13:51:58.624Z,31.67
2022-12-19T13:54:31.913Z,31.63
2022-12-19T13:57:04.327Z,32.30
2022-12-19T13:59:40.381Z,39.27
2022-12-19T14:02:43.677Z,30.73
2022-12-19T14:05:34.138Z,31.83
2022-12-19T14:08:23.320Z,35.87
2022-12-19T14:11:37.677Z,33.53
2022-12-19T14:14:27.696Z,35.50
2022-12-19T14:17:05.240Z,31.83
2022-12-19T14:19:40.767Z,33.77
2022-12-19T14:22:26.982Z,33.33
2022-12-19T14:26:05.927Z,34.07
2022-12-19T14:28:19.381Z,33.87
2022-12-19T14:31:02.646Z,33.00
2022-12-19T14:34:04.278Z,33.00
2022-12-19T14:36:33.062Z,32.73
2022-12-19T14:39:22.990Z,33.27
2022-12-19T14:42:10.415Z,34.63
2022-12-19T14:52:11.487Z,35.20
2022-12-19T14:52:36.053Z,32.73
2022-12-19T14:54:25.676Z,33.47
2022-12-19T14:54:37.408Z,34.63
2022-12-19T14:56:54.388Z,32.23
2022-12-19T14:59:07.197Z,31.57
2022-12-19T15:01:36.641Z,34.20
2022-12-19T15:04:50.554Z,35.83
2022-12-19T15:07:11.895Z,36.30
2022-12-19T15:11:08.579Z,35.13
2022-12-19T15:14:50.871Z,34.50
2022-12-19T15:16:02.953Z,36.83
2022-12-19T15:18:33.948Z,39.28
2022-12-19T15:21:15.545Z,36.63
2022-12-19T15:23:45.635Z,35.13
2022-12-19T15:26:36.584Z,34.87
2022-12-19T15:29:14.157Z,36.47
2022-12-19T15:31:46.506Z,34.67
2022-12-19T15:34:37.281Z,33.33
2022-12-19T15:37:08.852Z,35.17
2022-12-19T15:39:37.183Z,35.53
2022-12-19T15:42:11.627Z,32.57
2022-12-19T15:44:44.269Z,33.83
2022-12-19T15:47:24.785Z,34.60
2022-12-19T15:49:52.817Z,34.37
2022-12-19T15:52:22.275Z,36.05
2022-12-19T15:54:51.404Z,35.20
2022-12-19T15:57:36.937Z,39.37
2022-12-19T16:00:31.830Z,39.00
2022-12-19T16:05:48.816Z,37.77
2022-12-19T16:08:19.714Z,36.17
2022-12-19T16:10:54.647Z,36.50
2022-12-19T16:13:30.926Z,37.67
2022-12-19T16:15:59.489Z,36.47
2022-12-19T16:18:27.668Z,39.00
2022-12-19T16:20:55.369Z,38.17
2022-12-19T16:23:25.528Z,37.77
2022-12-19T16:25:53.568Z,37.57
2022-12-19T16:28:34.158Z,37.83
2022-12-19T16:31:15.894Z,41.10
2022-12-19T16:33:45.085Z,36.57
2022-12-19T16:36:13.604Z,38.87
2022-12-19T16:38:41.849Z,37.47
2022-12-19T16:41:23.696Z,37.97
2022-12-19T16:43:53.840Z,37.67
2022-12-19T16:46:24.099Z,37.97
2022-12-19T16:48:52.483Z,37.63
2022-12-19T16:51:22.979Z,36.47
2022-12-19T16:53:53.499Z,37.70
2022-12-19T16:56:32.938Z,40.47
2022-12-19T16:59:03.675Z,36.73
2022-12-19T17:01:31.717Z,37.47
2022-12-19T17:04:00.530Z,42.10
2022-12-19T17:06:28.541Z,41.27
2022-12-19T17:08:56.203Z,40.10
2022-12-19T17:11:26.216Z,38.33
2022-12-19T17:14:02.728Z,38.57
2022-12-19T17:16:31.159Z,36.00
2022-12-19T17:18:59.684Z,36.67
2022-12-19T17:21:27.733Z,38.33
2022-12-19T17:23:56.532Z,38.23
2022-12-19T17:26:27.078Z,38.20
2022-12-19T17:28:56.077Z,37.13
2022-12-19T17:31:28.464Z,38.07
2022-12-19T17:33:58.364Z,38.37
2022-12-19T17:36:34.704Z,40.40
2022-12-19T17:39:18.784Z,38.97
2022-12-19T17:41:48.046Z,41.10
2022-12-19T17:44:17.194Z,39.23
2022-12-19T17:46:46.030Z,40.87
2022-12-19T17:49:31.912Z,40.33
2022-12-19T17:52:00.623Z,38.63
2022-12-19T17:54:31.577Z,39.63
2022-12-19T17:57:00.109Z,41.20
2022-12-19T17:59:29.247Z,42.53
2022-12-19T18:01:59.073Z,44.13
2022-12-19T18:04:30.834Z,42.83
2022-12-19T18:06:59.149Z,41.07
2022-12-19T18:09:27.408Z,42.20
2022-12-19T18:11:55.609Z,43.57
2022-12-19T18:14:24.253Z,43.67
2022-12-19T18:16:53.300Z,43.87
2022-12-19T18:19:24.746Z,44.93
2022-12-19T18:21:52.804Z,43.40
2022-12-19T18:24:21.188Z,46.77
2022-12-19T18:26:49.021Z,46.13
2022-12-19T18:29:17.311Z,49.80
2022-12-19T18:31:50.981Z,45.83
2022-12-19T18:34:23.043Z,45.67
2022-12-19T18:36:52.292Z,46.23
2022-12-19T18:39:22.877Z,49.37
2022-12-19T18:41:51.388Z,45.90
2022-12-19T18:44:22.834Z,44.43
2022-12-19T18:46:54.352Z,47.03
2022-12-19T18:49:24.162Z,45.67
2022-12-19T18:51:52.113Z,45.47
2022-12-19T18:54:22.544Z,45.27
2022-12-19T18:56:52.514Z,42.87
2022-12-19T18:59:21.554Z,43.63
2022-12-19T19:01:49.506Z,42.50
2022-12-19T19:04:18.515Z,45.30
2022-12-19T19:06:51.773Z,45.23
2022-12-19T19:09:21.179Z,45.87
2022-12-19T19:11:49.656Z,42.67
2022-12-19T19:14:18.270Z,45.80
2022-12-19T19:16:48.378Z,45.87
2022-12-19T19:19:18.483Z,45.40
2022-12-19T19:21:46.064Z,45.87
2022-12-19T19:24:21.007Z,45.03
2022-12-19T19:26:49.823Z,47.23
2022-12-19T19:29:20.052Z,47.97
2022-12-19T19:31:50.849Z,49.13
2022-12-19T19:34:32.167Z,49.57
2022-12-19T19:37:01.917Z,51.43
2022-12-19T19:39:33.634Z,51.80
2022-12-19T19:42:03.082Z,50.37
2022-12-19T19:44:31.309Z,52.40
2022-12-19T19:46:59.747Z,51.47
2022-12-19T19:49:28.222Z,54.10
2022-12-19T19:52:02.235Z,53.97
2022-12-19T19:54:31.965Z,53.83
2022-12-19T19:56:59.727Z,56.17
2022-12-19T19:59:31.920Z,55.90
2022-12-19T20:02:00.611Z,58.33
2022-12-19T20:04:28.817Z,60.37
2022-12-19T20:06:56.756Z,53.83
2022-12-19T20:09:25.041Z,55.53
2022-12-19T20:11:52.688Z,61.10
2022-12-19T20:14:20.976Z,57.87
2022-12-19T20:16:48.824Z,58.87
2022-12-19T20:19:16.889Z,59.43
2022-12-19T20:21:45.410Z,58.23
2022-12-19T20:24:16.202Z,55.00
2022-12-19T20:26:44.533Z,54.97
2022-12-19T20:29:13.249Z,57.30
2022-12-19T20:31:43.098Z,56.90
2022-12-19T20:34:11.523Z,59.40
2022-12-19T20:36:39.460Z,58.63
2022-12-19T20:39:08.812Z,56.97
2022-12-19T20:41:36.694Z,55.83
2022-12-19T20:44:06.515Z,56.67
2022-12-19T20:46:36.516Z,57.37
2022-12-19T20:49:06.190Z,58.57
2022-12-19T20:51:34.330Z,59.10
2022-12-19T20:54:03.036Z,61.37
2022-12-19T20:56:31.861Z,58.33
2022-12-19T20:59:04.031Z,57.73
2022-12-19T21:01:32.347Z,57.43
2022-12-19T21:04:00.559Z,61.23
2022-12-19T21:06:29.514Z,58.73
2022-12-19T21:09:00.401Z,56.67
2022-12-19T21:11:29.137Z,62.37
2022-12-19T21:13:59.710Z,65.33
2022-12-19T21:16:28.600Z,62.27
2022-12-19T21:18:57.992Z,58.13
2022-12-19T21:21:28.641Z,55.67
2022-12-19T21:24:01.430Z,58.87
2022-12-19T21:26:29.645Z,56.83
2022-12-19T21:29:00.280Z,58.77
2022-12-19T21:31:33.596Z,59.53
2022-12-19T21:34:02.830Z,57.63
2022-12-19T21:36:32.966Z,57.67
2022-12-19T21:39:02.777Z,59.17
2022-12-19T21:41:31.063Z,62.90
2022-12-19T21:44:00.709Z,60.53
2022-12-19T21:46:31.146Z,57.90
2022-12-19T21:48:59.863Z,60.97
2022-12-19T21:51:29.968Z,62.67
2022-12-19T21:54:03.204Z,64.03
2022-12-19T21:56:39.420Z,61.97
2022-12-19T21:59:15.729Z,62.87
2022-12-19T22:01:44.589Z,64.67
2022-12-19T22:04:15.552Z,62.57
2022-12-19T22:06:43.004Z,60.57
2022-12-19T22:09:14.513Z,63.23
2022-12-19T22:11:42.818Z,56.00
2022-12-19T22:14:15.608Z,61.53
2022-12-19T22:16:43.266Z,56.87
2022-12-19T22:19:14.311Z,59.20
2022-12-19T22:21:42.104Z,57.63
2022-12-19T22:24:11.447Z,57.00
2022-12-19T22:26:39.132Z,57.53
2022-12-19T22:29:13.419Z,59.53
2022-12-19T22:31:41.750Z,56.43
2022-12-19T22:34:12.684Z,61.53
2022-12-19T22:36:42.449Z,58.53
2022-12-19T22:39:16.742Z,60.90
2022-12-19T22:41:45.222Z,58.93
2022-12-19T22:44:19.924Z,57.83
2022-12-19T22:46:48.047Z,59.03
2022-12-19T22:49:16.520Z,58.37
2022-12-19T22:51:44.428Z,56.23
2022-12-19T22:54:13.630Z,56.30
2022-12-19T22:56:41.722Z,55.80
2022-12-19T22:59:12.115Z,54.60
2022-12-19T23:01:42.105Z,54.83
2022-12-19T23:04:14.244Z,54.30
2022-12-19T23:06:43.079Z,55.97
2022-12-19T23:09:14.830Z,57.53
2022-12-19T23:11:45.981Z,55.33
2022-12-19T23:14:17.594Z,55.13
2022-12-19T23:16:45.551Z,57.50
2022-12-19T23:19:15.288Z,54.07
2022-12-19T23:21:42.684Z,54.77
2022-12-19T23:24:11.764Z,52.23
2022-12-19T23:26:41.991Z,51.53
2022-12-19T23:29:12.947Z,52.53
2022-12-19T23:31:42.031Z,48.93
2022-12-19T23:34:10.660Z,51.77
2022-12-19T23:37:09.754Z,50.40
2022-12-19T23:39:26.739Z,53.63
2022-12-19T23:41:54.247Z,52.90
2022-12-19T23:44:22.100Z,55.43
2022-12-19T23:46:49.548Z,56.23
2022-12-19T23:49:17.159Z,49.70
2022-12-19T23:51:44.574Z,51.27
2022-12-19T23:54:12.525Z,50.87
2022-12-19T23:56:39.896Z,51.50
2022-12-19T23:59:07.523Z,54.93
